Latest Coastal Weather Observations for Learmonth

IDW60701

Issued at 7:45 am WST Saturday 25 October 2014 (issued every 10 minutes, with the page automatically refreshed every 10 minutes)

About coastal observations | Map of coastal stations | Coastal observations for WA | Marine services | Other Formats
Station Details ID: 005007 Name: LEARMONTH AIRPORT Lat: -22.24 Lon: 114.10 Height: 5.0 m
Data from the previous 72 hours. | See also: Recent months at Learmonth
Date/Time
WST
Temp

°C
Wind Pressure Rain
since 9am
mm
Weather Cloud Vis
km
Sea
Height
m
Swell
Dir
 
Speed
knots
Gust
knots
hPa Trend Height
m
Period
s
Dir
25/07:30am 21.1 S 17 22 1018.2 - 0.0 - - 10 - - - -
25/07:00am 20.1 S 13 19 1017.9 - 0.0 - - 10 - - - -
25/06:30am 18.6 S 9 13 1017.4 - 0.0 - - 10 - - - -
25/06:00am 17.3 SSW 9 12 1016.6 - 0.0 - - 10 - - - -
25/05:30am 17.5 SSW 11 14 1016.2 - 0.0 - - 10 - - - -
25/05:00am 17.9 SSW 10 14 1016.0 - 0.0 - - 10 - - - -
25/04:30am 18.2 SSW 13 18 1015.5 - 0.0 - - 10 - - - -
25/04:00am 18.4 SSW 14 19 1015.2 - 0.0 - - 10 - - - -
25/03:30am 18.4 SSW 13 17 1015.2 - 0.0 - - 10 - - - -
25/03:00am 18.6 SSW 12 15 1014.9 - 0.0 - - 10 - - - -
25/02:30am 18.7 SSW 12 15 1014.9 - 0.0 - - 10 - - - -
25/02:00am 19.0 SSW 13 17 1014.8 - 0.0 - - 10 - - - -
25/01:30am 19.5 SSW 13 18 1015.0 - 0.0 - - 10 - - - -
25/01:00am 19.9 SSW 13 17 1015.0 - 0.0 - - 10 - - - -
25/12:30am 20.2 SSW 15 20 1015.1 - 0.0 - - 10 - - - -
25/12:00am 20.0 SSW 14 17 1015.1 - 0.0 - - 10 - - - -
 
Date/Time
WST
Temp

°C
Wind Pressure Rain
since 9am
mm
Weather Cloud Vis
km
Sea
Height
m
Swell
Dir
 
Speed
knots
Gust
knots
hPa Trend Height
m
Period
s
Dir
24/11:30pm 20.1 SSW 12 18 1015.5 - 0.0 - - 10 - - - -
24/11:00pm 20.5 SSW 13 17 1015.7 - 0.0 - - 10 - - - -
24/10:30pm 20.8 SSW 13 17 1015.8 - 0.0 - - 10 - - - -
24/10:00pm 20.7 SSW 13 17 1015.8 - 0.0 - - 10 - - - -
24/09:30pm 20.8 SSW 11 14 1015.7 - 0.0 - - 10 - - - -
24/09:00pm 21.0 SSW 9 12 1015.3 - 0.0 - - 10 - - - -
24/08:30pm 21.1 S 7 10 1015.1 - 0.0 - - 10 - - - -
24/08:00pm 21.7 SSW 8 11 1014.6 - 0.0 - - 10 - - - -
24/07:30pm 22.4 SSW 14 19 1014.0 - 0.0 - - 10 - - - -
24/07:00pm 22.9 S 8 10 1013.7 - 0.0 - - 10 - - - -
24/06:30pm 24.1 SSW 10 13 1013.2 - 0.0 - - 10 - - - -
24/06:00pm 25.6 SSW 14 19 1012.8 - 0.0 - - 10 - - - -
24/05:30pm 27.7 SSW 16 21 1012.4 - 0.0 - - 10 - - - -
24/05:00pm 29.7 SW 16 22 1011.9 - 0.0 - - 10 - - - -
24/04:30pm 30.9 SW 18 23 1011.5 - 0.0 - - 10 - - - -
24/04:00pm 31.8 SW 16 21 1011.6 - 0.0 - - 10 - - - -
24/03:30pm 33.3 SW 15 21 1011.7 - 0.0 - - 10 - - - -
24/03:00pm 33.6 SW 13 19 1011.6 - 0.0 - - 10 - - - -
24/02:30pm 33.4 SW 16 21 1012.0 - 0.0 - - 10 - - - -
24/02:00pm 34.1 SW 13 18 1012.0 - 0.0 - - 10 - - - -
24/01:30pm 35.1 SW 11 17 1012.3 - 0.0 - - 10 - - - -
24/01:00pm 34.4 SW 11 17 1012.3 - 0.0 - - 10 - - - -
24/12:30pm 33.2 SW 11 17 1012.5 - 0.0 - - 10 - - - -
24/12:00pm 32.3 S 11 15 1012.9 - 0.0 - - 10 - - - -
24/11:30am 31.1 SW 10 12 1013.5 - 0.0 - - 10 - - - -
24/11:00am 30.1 SSW 10 15 1014.1 - 0.0 - - 10 - - - -
24/10:30am 28.7 SSW 9 12 1014.3 - 0.0 - - 10 - - - -
24/10:00am 27.5 S 10 13 1014.8 - 0.0 - - 10 - - - -
24/09:30am 25.7 S 13 16 1015.3 - 0.0 - - 10 - - - -
24/09:00am 24.5 S 13 18 1015.3 - 0.0 - - 10 - - - -
24/08:30am 23.7 S 15 20 1015.5 - 0.0 - - 10 - - - -
24/08:00am 22.1 S 17 22 1015.3 - 0.0 - - 10 - - - -
24/07:30am 21.0 SSW 14 20 1015.2 - 0.0 - - 10 - - - -
24/07:00am 19.2 SSW 11 15 1015.2 - 0.0 - - 10 - - - -
24/06:30am 17.8 SSW 10 13 1014.9 - 0.0 - - 10 - - - -
24/06:00am 17.0 SSW 10 12 1014.5 - 0.0 - - 10 - - - -
24/05:30am 16.9 SSW 8 10 1014.5 - 0.0 - - 10 - - - -
24/05:00am 17.1 SSW 9 12 1014.3 - 0.0 - - 10 - - - -
24/04:30am 17.5 SSW 10 12 1014.1 - 0.0 - - 10 - - - -
24/04:00am 17.6 SSW 9 13 1014.0 - 0.0 - - 10 - - - -
24/03:30am 17.8 SSW 10 13 1014.1 - 0.0 - - 10 - - - -
24/03:00am 17.7 SSW 10 12 1014.0 - 0.0 - - 10 - - - -
24/02:30am 18.0 SSW 11 13 1014.3 - 0.0 - - 10 - - - -
24/02:00am 18.3 SSW 10 12 1014.3 - 0.0 - - 10 - - - -
24/01:30am 18.7 SSW 10 12 1014.5 - 0.0 - - 10 - - - -
24/01:00am 19.3 SSW 10 15 1014.7 - 0.0 - - 10 - - - -
24/12:30am 19.9 SSW 13 16 1014.8 - 0.0 - - 10 - - - -
24/12:00am 20.0 SSW 12 17 1015.0 - 0.0 - - 10 - - - -
 
Date/Time
WST
Temp

°C
Wind Pressure Rain
since 9am
mm
Weather Cloud Vis
km
Sea
Height
m
Swell
Dir
 
Speed
knots
Gust
knots
hPa Trend Height
m
Period
s
Dir
23/11:30pm 20.2 SSW 13 16 1015.2 - 0.0 - - 10 - - - -
23/11:00pm 20.5 SW 12 17 1015.4 - 0.0 - - 10 - - - -
23/10:30pm 20.5 SW 11 15 1015.5 - 0.0 - - 10 - - - -
23/10:00pm 20.5 SW 11 14 1015.5 - 0.0 - - 10 - - - -
23/09:30pm 20.7 SW 11 15 1015.5 - 0.0 - - 10 - - - -
23/09:00pm 21.1 SW 13 16 1015.2 - 0.0 - - 10 - - - -
23/08:30pm 21.2 SW 12 16 1015.0 - 0.0 - - 10 - - - -
23/08:00pm 21.5 SW 13 17 1015.0 - 0.0 - - 10 - - - -
23/07:30pm 21.9 SSW 14 18 1014.8 - 0.0 - - 10 - - - -
23/07:00pm 22.4 SSW 15 21 1014.5 - 0.0 - - 10 - - - -
23/06:30pm 23.5 SSW 15 21 1014.2 - 0.0 - - 10 - - - -
23/06:00pm 24.9 SSW 16 21 1013.6 - 0.0 - - 10 - - - -
23/05:30pm 26.5 SSW 16 21 1013.3 - 0.0 - - 10 - - - -
23/05:00pm 28.1 SSW 17 22 1013.0 - 0.0 - - 10 - - - -
23/04:30pm 28.9 SW 16 21 1012.9 - 0.0 - - 10 - - - -
23/04:00pm 30.2 SSW 16 21 1013.0 - 0.0 - - 10 - - - -
23/03:30pm 30.3 SSW 15 21 1013.0 - 0.0 - - 10 - - - -
23/03:00pm 31.1 SSW 16 21 1012.9 R 0.0 Fine Clear 30 - - - -
23/02:30pm 31.2 SW 14 19 1013.2 - 0.0 - - 10 - - - -
23/02:00pm 31.4 SW 13 17 1013.4 - 0.0 - - 10 - - - -
23/01:30pm 31.5 SSW 13 17 1013.7 - 0.0 - - 10 - - - -
23/01:00pm 32.0 SW 15 17 1013.9 - 0.0 - - 10 - - - -
23/12:30pm 30.4 SSW 14 17 1014.3 - 0.0 - - 10 - - - -
23/12:00pm 30.6 S 14 19 1014.6 F 0.0 Fine Clear 30 - - - -
23/11:30am 29.1 SSW 14 21 1015.0 - 0.0 - - 10 - - - -
23/11:00am 27.8 S 12 15 1015.5 - 0.0 - - 10 - - - -
23/10:30am 26.2 S 13 18 1016.0 - 0.0 - - 10 - - - -
23/10:00am 26.2 SSE 15 21 1016.3 - 0.0 - - 10 - - - -
23/09:30am 25.5 S 14 19 1016.6 - 0.0 - - 10 - - - -
23/09:00am 25.1 S 15 20 1016.5 F 0.0 Fine Clear 30 - - - -
23/08:30am 23.4 S 16 21 1016.7 - 0.0 - Mostly clear 10 - - - -
23/08:00am 22.4 S 17 22 1016.7 - 0.0 - Mostly clear 10 - - - -
23/07:30am 21.3 S 17 23 1016.7 - 0.0 - Mostly clear 10 - - - -
23/07:00am 20.1 S 13 16 1016.7 - 0.0 - Mostly clear 10 - - - -
23/06:30am 18.8 S 11 15 1016.5 - 0.0 - Mostly clear 10 - - - -
23/06:00am 18.3 S 11 13 1016.3 S 0.0 Smoke Mostly clear 25 - - - -
23/05:30am 18.3 SSW 9 11 1016.4 - 0.0 - - 10 - - - -
23/05:00am 18.1 SSW 8 11 1016.1 - 0.0 - - 10 - - - -
23/04:30am 18.0 SSW 9 11 1016.0 - 0.0 - - 10 - - - -
23/04:00am 18.0 SW 8 10 1015.9 - 0.0 - - 10 - - - -
23/03:30am 18.0 SSW 8 12 1015.5 - 0.0 - - 10 - - - -
23/03:00am 18.2 SSW 8 10 1015.4 - 0.0 - - 10 - - - -
23/02:30am 18.3 SSW 9 12 1015.7 - 0.0 - - 10 - - - -
23/02:00am 18.4 SW 7 8 1016.1 - 0.0 - - 10 - - - -
23/01:30am 18.5 SSW 7 9 1016.2 - 0.0 - - 10 - - - -
23/01:00am 19.5 SSW 9 12 1016.5 - 0.0 - - 10 - - - -
23/12:30am 20.0 SSW 12 17 1016.2 - 0.0 - - 10 - - - -
23/12:00am 20.1 SSW 13 17 1016.0 - 0.0 - - 10 - - - -
 
Date/Time
WST
Temp

°C
Wind Pressure Rain
since 9am
mm
Weather Cloud Vis
km
Sea
Height
m
Swell
Dir
 
Speed
knots
Gust
knots
hPa Trend Height
m
Period
s
Dir
22/11:30pm 20.1 SSW 13 18 1016.1 - 0.0 - - 10 - - - -
22/11:00pm 20.3 SSW 15 19 1016.3 - 0.0 - - 10 - - - -
22/10:30pm 20.6 SSW 15 20 1016.7 - 0.0 - - 10 - - - -
22/10:00pm 20.8 SSW 15 19 1016.7 - 0.0 - - 10 - - - -
22/09:30pm 21.0 SSW 15 19 1016.8 - 0.0 - - 10 - - - -
22/09:00pm 21.3 SSW 16 21 1016.6 - 0.0 - - 10 - - - -
22/08:30pm 21.5 SSW 14 18 1016.6 - 0.0 - - 10 - - - -
22/08:00pm 21.9 SSW 15 18 1016.4 - 0.0 - - 10 - - - -
22/07:30pm 22.2 SSW 14 19 1016.2 - 0.0 - - 10 - - - -
22/07:00pm 23.0 SSW 15 20 1015.9 - 0.0 - - 10 - - - -
22/06:30pm 23.7 SSW 15 20 1015.6 - 0.0 - - 10 - - - -
22/06:00pm 24.3 SSW 15 20 1015.2 - 0.0 - - 10 - - - -
22/05:30pm 25.4 SSW 17 22 1015.2 - 0.0 - - 10 - - - -
22/05:00pm 26.2 SSW 18 22 1014.9 - 0.0 - - 10 - - - -
22/04:30pm 27.7 SSW 17 21 1014.7 - 0.0 - - 10 - - - -
22/04:00pm 28.5 SSW 14 19 1014.8 - 0.0 - - 10 - - - -
22/03:30pm 30.0 SSW 13 19 1014.7 - 0.0 - - 10 - - - -
22/03:00pm 30.1 SW 13 18 1014.7 S 0.0 Smoke Cloudy 27 - - - -
22/02:30pm 29.9 SSW 13 18 1015.1 - 0.0 - - 10 - - - -
22/02:00pm 29.5 SSW 13 17 1015.5 - 0.0 - - 10 - - - -
22/01:30pm 29.5 SSW 14 18 1015.7 - 0.0 - - 10 - - - -
22/01:00pm 30.9 SW 14 19 1016.0 - 0.0 - - 10 - - - -
22/12:30pm 30.1 SW 9 15 1016.2 - 0.0 - - 10 - - - -
22/12:00pm 29.1 S 10 14 1016.7 R 0.0 Smoke Cloudy 27 - - - -
22/11:30am 29.1 SW 11 17 1016.9 - 0.0 - - 10 - - - -
22/11:00am 27.2 S 12 17 1017.5 - 0.0 - - 10 - - - -
22/10:30am 26.7 SSW 12 15 1017.7 - 0.0 - - 10 - - - -
22/10:00am 26.2 S 12 17 1018.0 - 0.0 - - 10 - - - -
22/09:30am 24.2 S 13 18 1018.0 - 0.0 - Mostly clear 10 - - - -
22/09:00am 23.3 S 12 16 1018.1 F 0.0 Smoke Cloudy 25 - - - -
22/08:30am 22.5 S 14 19 1018.0 - 0.0 - - 10 - - - -
22/08:00am 21.5 S 10 13 1018.1 - 0.0 - Mostly clear 10 - - - -

Other Formats:

Comma delimited format used in spreadsheet applications
http://www.bom.gov.au/fwo/IDW60701/IDW60701.94302.axf

JavaScript Object Notation format (JSON) in row-major order
http://www.bom.gov.au/fwo/IDW60701/IDW60701.94302.json